createdAt,value
2019-02-26T00:01:21.047Z,47.30
2019-02-26T00:03:49.240Z,51.03
2019-02-26T00:06:18.561Z,49.47
2019-02-26T00:08:49.216Z,53.70
2019-02-26T00:11:16.274Z,55.73
2019-02-26T00:13:44.143Z,54.37
2019-02-26T00:16:13.407Z,53.60
2019-02-26T00:18:42.664Z,54.53
2019-02-26T00:21:10.816Z,52.27
2019-02-26T00:23:39.048Z,57.10
2019-02-26T00:26:06.874Z,56.53
2019-02-26T00:28:36.315Z,63.17
2019-02-26T00:31:05.890Z,55.23
2019-02-26T00:33:33.704Z,59.13
2019-02-26T00:36:01.378Z,54.97
2019-02-26T00:38:30.417Z,54.57
2019-02-26T00:41:00.017Z,56.37
2019-02-26T00:43:30.178Z,54.43
2019-02-26T00:45:58.285Z,55.53
2019-02-26T00:48:27.101Z,51.67
2019-02-26T00:50:56.541Z,56.80
2019-02-26T00:53:25.980Z,53.97
2019-02-26T00:55:54.294Z,55.60
2019-02-26T00:58:23.821Z,51.43
2019-02-26T01:00:51.512Z,55.13
2019-02-26T01:03:19.247Z,53.83
2019-02-26T01:05:46.995Z,55.23
2019-02-26T01:08:15.734Z,56.67
2019-02-26T01:10:45.733Z,51.50
2019-02-26T01:13:13.297Z,50.07
2019-02-26T01:15:41.199Z,49.50
2019-02-26T01:18:09.017Z,50.00
2019-02-26T01:20:36.952Z,51.67
2019-02-26T01:23:04.809Z,49.20
2019-02-26T01:25:32.786Z,49.00
2019-02-26T01:28:00.650Z,50.83
2019-02-26T01:30:29.402Z,50.37
2019-02-26T01:32:59.935Z,49.33
2019-02-26T01:35:28.857Z,51.60
2019-02-26T01:37:59.887Z,51.37
2019-02-26T01:40:26.766Z,50.87
2019-02-26T01:42:55.615Z,52.33
2019-02-26T01:45:26.647Z,53.93
2019-02-26T01:47:56.209Z,51.40
2019-02-26T01:50:23.701Z,55.90
2019-02-26T01:52:51.894Z,54.30
2019-02-26T01:55:21.145Z,53.37
2019-02-26T01:57:50.853Z,54.47
2019-02-26T02:00:18.763Z,50.83
2019-02-26T02:02:46.604Z,53.00
2019-02-26T02:05:14.511Z,52.80
2019-02-26T02:07:46.059Z,58.27
2019-02-26T02:13:41.423Z,53.10
2019-02-26T02:16:09.503Z,57.23
2019-02-26T02:18:37.269Z,57.73
2019-02-26T02:21:05.098Z,55.80
2019-02-26T02:23:34.775Z,53.07
2019-02-26T02:26:04.407Z,54.43
2019-02-26T02:28:33.705Z,53.23
2019-02-26T02:31:01.470Z,53.83
2019-02-26T02:33:30.063Z,53.90
2019-02-26T02:35:58.436Z,54.40
2019-02-26T02:38:26.211Z,52.33
2019-02-26T02:40:54.936Z,52.93
2019-02-26T02:43:23.598Z,56.37
2019-02-26T02:45:53.171Z,56.90
2019-02-26T02:48:21.050Z,54.10
2019-02-26T02:50:48.772Z,53.53
2019-02-26T02:53:20.465Z,50.50
2019-02-26T02:55:47.050Z,48.47
2019-02-26T02:58:18.296Z,57.57
2019-02-26T03:00:46.191Z,59.17
2019-02-26T03:03:14.986Z,61.83
2019-02-26T03:05:43.801Z,67.60
2019-02-26T03:08:13.980Z,68.37
2019-02-26T03:10:43.108Z,62.60
2019-02-26T03:13:11.370Z,61.13
2019-02-26T03:15:39.544Z,64.77
2019-02-26T03:18:09.922Z,63.07
2019-02-26T03:20:40.323Z,66.70
2019-02-26T03:23:09.323Z,60.77
2019-02-26T03:25:36.593Z,61.80
2019-02-26T03:28:04.425Z,58.63
2019-02-26T03:30:38.154Z,60.57
2019-02-26T03:33:04.352Z,65.57
2019-02-26T03:35:31.548Z,65.40
2019-02-26T03:38:01.345Z,62.07
2019-02-26T03:40:29.898Z,64.10
2019-02-26T03:42:58.347Z,66.43
2019-02-26T03:45:26.139Z,62.80
2019-02-26T03:47:55.435Z,65.53
2019-02-26T03:50:26.404Z,66.33
2019-02-26T03:52:53.332Z,64.97
2019-02-26T03:55:20.879Z,61.53
2019-02-26T03:57:53.276Z,61.40
2019-02-26T04:00:20.186Z,63.87
2019-02-26T04:02:51.326Z,66.30
2019-02-26T04:05:17.810Z,77.70
2019-02-26T04:07:48.980Z,63.23
2019-02-26T04:10:15.303Z,70.00
2019-02-26T04:12:45.046Z,65.00
2019-02-26T04:15:16.317Z,69.00
2019-02-26T04:17:44.228Z,63.37
2019-02-26T04:20:12.573Z,73.93
2019-02-26T04:22:42.890Z,64.43
2019-02-26T04:25:22.093Z,66.53
2019-02-26T04:27:57.011Z,65.57
2019-02-26T04:31:06.678Z,62.40
2019-02-26T04:34:13.268Z,63.20
2019-02-26T04:37:16.769Z,62.60
2019-02-26T04:40:18.658Z,64.00
2019-02-26T04:43:16.172Z,69.53
2019-02-26T04:46:14.626Z,70.73
2019-02-26T04:48:44.925Z,73.37
2019-02-26T04:51:22.024Z,64.33
2019-02-26T04:53:51.927Z,60.87
2019-02-26T04:56:19.738Z,60.70
2019-02-26T04:58:48.170Z,67.90
2019-02-26T05:01:18.871Z,64.97
2019-02-26T05:03:47.930Z,59.80
2019-02-26T05:06:16.636Z,55.97
2019-02-26T05:08:44.367Z,62.63
2019-02-26T05:11:19.041Z,66.30
2019-02-26T05:13:43.449Z,64.97
2019-02-26T05:16:11.679Z,68.10
2019-02-26T05:18:39.621Z,69.63
2019-02-26T05:21:10.239Z,63.70
2019-02-26T05:23:49.521Z,58.50
2019-02-26T05:26:18.719Z,64.10
2019-02-26T05:28:49.739Z,57.97
2019-02-26T05:31:18.785Z,56.63
2019-02-26T05:33:49.079Z,60.83
2019-02-26T05:36:18.797Z,58.37
2019-02-26T05:38:49.302Z,59.37
2019-02-26T05:41:19.008Z,66.73
2019-02-26T05:43:52.151Z,61.80
2019-02-26T05:46:19.531Z,64.97
2019-02-26T05:48:49.107Z,62.60
2019-02-26T05:51:18.613Z,64.83
2019-02-26T05:53:46.734Z,69.20
2019-02-26T05:56:17.139Z,67.07
2019-02-26T05:58:46.971Z,67.33
2019-02-26T06:01:16.864Z,73.17
2019-02-26T06:03:51.935Z,74.00
2019-02-26T06:06:20.411Z,74.50
2019-02-26T06:08:49.056Z,85.50
2019-02-26T06:11:17.220Z,91.20
2019-02-26T06:13:45.907Z,84.70
2019-02-26T06:16:15.599Z,82.77
2019-02-26T06:18:46.485Z,78.17
2019-02-26T06:21:16.641Z,78.20
2019-02-26T06:23:51.026Z,77.20
2019-02-26T06:26:20.206Z,77.50
2019-02-26T06:28:52.798Z,72.33
2019-02-26T06:31:22.088Z,69.70
2019-02-26T06:33:52.854Z,76.77
2019-02-26T06:36:25.870Z,72.07
2019-02-26T06:38:56.496Z,65.80
2019-02-26T06:41:27.567Z,63.80
2019-02-26T06:43:58.348Z,59.80
2019-02-26T06:46:29.378Z,58.23
2019-02-26T06:48:58.865Z,58.77
2019-02-26T06:51:30.607Z,51.33
2019-02-26T06:54:01.070Z,54.87
2019-02-26T06:56:34.426Z,51.53
2019-02-26T06:59:12.265Z,51.37
2019-02-26T07:01:41.991Z,46.97
2019-02-26T07:04:12.899Z,46.47
2019-02-26T07:06:40.775Z,53.70
2019-02-26T07:09:15.259Z,46.40
2019-02-26T07:11:43.445Z,47.70
2019-02-26T07:14:25.359Z,46.77
2019-02-26T07:16:59.189Z,48.93
2019-02-26T07:19:31.300Z,64.93
2019-02-26T07:21:59.237Z,49.83
2019-02-26T07:24:27.285Z,46.73
2019-02-26T07:26:54.732Z,47.13
2019-02-26T07:29:22.773Z,41.57
2019-02-26T07:31:51.925Z,41.83
2019-02-26T07:34:22.709Z,41.03
2019-02-26T07:36:52.533Z,40.17
2019-02-26T07:39:22.766Z,38.07
2019-02-26T07:41:51.687Z,39.90
2019-02-26T07:44:23.430Z,40.73
2019-02-26T07:46:51.385Z,39.57
2019-02-26T07:49:19.940Z,39.90
2019-02-26T07:51:47.761Z,39.43
2019-02-26T07:54:15.578Z,39.00
2019-02-26T07:56:44.359Z,38.23
2019-02-26T07:59:13.084Z,39.67
2019-02-26T08:01:44.741Z,38.30
2019-02-26T08:04:13.562Z,38.73
2019-02-26T08:06:42.612Z,39.43
2019-02-26T08:09:13.953Z,38.33
2019-02-26T08:11:41.271Z,39.30
2019-02-26T08:14:14.354Z,39.70
2019-02-26T08:16:42.937Z,39.57
2019-02-26T08:19:11.205Z,40.47
2019-02-26T08:21:39.839Z,39.17
2019-02-26T08:27:00.911Z,41.07
2019-02-26T08:29:31.364Z,41.33
2019-02-26T08:32:02.442Z,41.77
2019-02-26T08:34:31.931Z,41.03
2019-02-26T08:37:00.357Z,40.63
2019-02-26T08:39:28.211Z,41.60
2019-02-26T08:42:02.981Z,41.87
2019-02-26T08:44:31.368Z,43.07
2019-02-26T08:46:59.160Z,39.77
2019-02-26T08:49:27.026Z,42.13
2019-02-26T08:51:54.979Z,40.50
2019-02-26T08:54:25.943Z,40.13
2019-02-26T08:56:53.757Z,41.37
2019-02-26T08:59:22.351Z,43.60
2019-02-26T09:01:52.737Z,43.90
2019-02-26T09:04:21.487Z,44.37
2019-02-26T09:06:52.352Z,46.53
2019-02-26T09:09:22.865Z,47.77
2019-02-26T09:11:52.998Z,45.77
2019-02-26T09:14:22.446Z,46.17
2019-02-26T09:16:52.541Z,43.93
2019-02-26T09:19:22.662Z,42.90
2019-02-26T09:21:54.288Z,43.37
2019-02-26T09:24:22.562Z,43.77
2019-02-26T09:26:52.087Z,44.13
2019-02-26T09:29:22.284Z,44.77
2019-02-26T09:31:51.352Z,44.40
2019-02-26T09:34:20.063Z,41.33
2019-02-26T09:36:50.664Z,45.70
2019-02-26T09:39:17.838Z,44.30
2019-02-26T09:41:45.969Z,45.30
2019-02-26T09:44:15.197Z,45.10
2019-02-26T09:46:43.929Z,45.40
2019-02-26T09:49:12.763Z,44.10
2019-02-26T09:51:41.825Z,46.20
2019-02-26T09:54:12.645Z,45.27
2019-02-26T09:56:39.585Z,45.87
2019-02-26T09:59:09.642Z,43.43
2019-02-26T10:01:40.205Z,46.43
2019-02-26T10:04:07.826Z,44.67
2019-02-26T10:06:37.950Z,45.97
2019-02-26T10:09:08.391Z,47.17
2019-02-26T10:11:36.513Z,45.57
2019-02-26T10:14:07.859Z,46.80
2019-02-26T10:16:35.117Z,44.43
2019-02-26T10:19:03.786Z,44.90
2019-02-26T10:21:34.778Z,47.10
2019-02-26T10:24:04.622Z,44.27
2019-02-26T10:26:33.511Z,46.67
2019-02-26T10:29:04.698Z,47.03
2019-02-26T10:31:40.128Z,46.73
2019-02-26T10:34:10.022Z,47.13
2019-02-26T10:36:43.226Z,46.13
2019-02-26T10:39:09.562Z,46.37
2019-02-26T10:41:39.847Z,45.07
2019-02-26T10:44:12.216Z,46.83
2019-02-26T10:46:42.598Z,44.43
2019-02-26T10:49:12.969Z,47.47
2019-02-26T10:51:42.638Z,44.77
2019-02-26T10:54:17.859Z,44.00
2019-02-26T10:56:44.822Z,43.80
2019-02-26T10:59:19.600Z,45.27
2019-02-26T11:01:47.446Z,43.47
2019-02-26T11:04:16.832Z,44.20
2019-02-26T11:06:46.929Z,44.37
2019-02-26T11:09:18.210Z,43.37
2019-02-26T11:11:48.971Z,43.17
2019-02-26T11:14:19.315Z,41.73
2019-02-26T11:16:46.965Z,42.77
2019-02-26T11:19:15.418Z,45.70
2019-02-26T11:21:44.429Z,44.93
2019-02-26T11:24:15.108Z,43.83
2019-02-26T11:26:43.878Z,43.10
2019-02-26T11:29:14.777Z,46.43
2019-02-26T11:31:44.787Z,45.57
2019-02-26T11:34:13.459Z,47.63
2019-02-26T11:36:42.137Z,43.90
2019-02-26T11:39:12.067Z,48.40
2019-02-26T11:41:40.418Z,46.70
2019-02-26T11:44:12.467Z,48.00
2019-02-26T11:46:38.413Z,45.10
2019-02-26T11:49:14.462Z,45.43
2019-02-26T11:51:42.430Z,47.17
2019-02-26T11:54:12.976Z,46.17
2019-02-26T11:56:44.094Z,48.10
2019-02-26T11:59:14.336Z,45.87
2019-02-26T12:01:42.167Z,43.43
2019-02-26T12:04:11.318Z,43.83
2019-02-26T12:06:40.804Z,45.20
2019-02-26T12:09:11.439Z,44.77
2019-02-26T12:11:39.035Z,43.60
2019-02-26T12:14:08.290Z,43.73
2019-02-26T12:16:38.852Z,43.70
2019-02-26T12:19:08.738Z,42.90
2019-02-26T12:21:40.113Z,45.30
2019-02-26T12:24:09.312Z,42.33
2019-02-26T12:26:38.933Z,36.30
2019-02-26T12:29:10.105Z,37.17
2019-02-26T12:31:39.117Z,40.40
2019-02-26T12:34:09.139Z,40.03
2019-02-26T12:36:37.346Z,37.63
2019-02-26T12:39:08.222Z,38.70
2019-02-26T12:41:38.702Z,39.30
2019-02-26T12:44:10.847Z,41.47
2019-02-26T12:46:36.657Z,33.23
2019-02-26T12:49:05.721Z,38.77
2019-02-26T12:51:35.434Z,33.43
2019-02-26T12:54:06.403Z,35.20
2019-02-26T12:56:36.777Z,34.93
2019-02-26T12:59:07.086Z,38.33
2019-02-26T13:01:36.264Z,38.17
2019-02-26T13:04:06.148Z,34.43
2019-02-26T13:06:41.255Z,39.50
2019-02-26T13:09:10.625Z,39.67
2019-02-26T13:11:38.853Z,36.33
2019-02-26T13:14:07.646Z,36.77
2019-02-26T13:16:35.833Z,35.13
2019-02-26T13:19:07.955Z,37.57
2019-02-26T13:21:42.995Z,39.53
2019-02-26T13:24:17.908Z,39.67
2019-02-26T13:26:48.831Z,38.90
2019-02-26T13:29:15.222Z,38.73
2019-02-26T13:31:55.564Z,45.33
2019-02-26T13:34:14.908Z,38.93
2019-02-26T13:36:48.994Z,36.70
2019-02-26T13:39:26.139Z,38.80
2019-02-26T13:41:54.347Z,37.23
2019-02-26T13:44:21.598Z,39.13
2019-02-26T13:50:15.141Z,40.87
2019-02-26T13:52:47.362Z,40.40
2019-02-26T13:55:21.827Z,39.70
2019-02-26T13:57:50.716Z,37.10
2019-02-26T14:00:26.387Z,38.70
2019-02-26T14:02:51.779Z,36.57
2019-02-26T14:05:21.036Z,37.33
2019-02-26T14:13:56.301Z,39.77
2019-02-26T14:16:32.606Z,41.43
2019-02-26T14:19:01.100Z,39.80
2019-02-26T14:21:32.037Z,38.50
2019-02-26T14:24:00.807Z,38.40
2019-02-26T14:26:34.031Z,40.60
2019-02-26T14:29:03.708Z,39.60
2019-02-26T14:31:34.510Z,39.77
2019-02-26T14:34:07.060Z,38.07
2019-02-26T14:36:55.737Z,38.37
2019-02-26T14:39:24.924Z,38.13
2019-02-26T14:41:55.193Z,40.27
2019-02-26T14:44:27.875Z,36.90
2019-02-26T14:46:55.288Z,40.40
2019-02-26T14:50:45.291Z,41.17
2019-02-26T14:53:14.860Z,39.13
2019-02-26T14:55:43.895Z,39.67
2019-02-26T14:58:14.019Z,38.70
2019-02-26T15:00:42.796Z,39.40
2019-02-26T15:03:11.752Z,37.37
2019-02-26T15:05:40.756Z,39.60
2019-02-26T15:08:10.699Z,38.63
2019-02-26T15:10:39.539Z,38.03
2019-02-26T15:13:11.167Z,40.30
2019-02-26T15:15:39.584Z,38.97
2019-02-26T15:18:10.587Z,43.30
2019-02-26T15:20:52.609Z,43.33
2019-02-26T15:23:24.919Z,43.70
2019-02-26T15:25:53.803Z,42.63
2019-02-26T15:28:22.399Z,43.93
2019-02-26T15:30:52.147Z,41.40
2019-02-26T15:33:20.780Z,40.27
2019-02-26T15:35:49.956Z,43.00
2019-02-26T15:38:23.781Z,41.93
2019-02-26T15:40:53.383Z,40.80
2019-02-26T15:43:21.775Z,42.83
2019-02-26T15:45:52.233Z,45.97
2019-02-26T15:48:22.751Z,45.70
2019-02-26T15:50:51.794Z,42.73
2019-02-26T15:53:23.607Z,41.10
2019-02-26T15:55:51.469Z,46.90
2019-02-26T15:58:38.413Z,44.13
2019-02-26T16:01:03.185Z,41.03
2019-02-26T16:03:37.407Z,42.57
2019-02-26T16:06:06.469Z,45.13
2019-02-26T16:08:34.918Z,43.90
2019-02-26T16:11:05.645Z,45.27
2019-02-26T16:13:34.333Z,44.67
2019-02-26T16:16:06.284Z,46.03
2019-02-26T16:18:34.685Z,43.97
2019-02-26T16:21:04.381Z,44.93
2019-02-26T16:23:35.100Z,48.20
2019-02-26T16:26:05.647Z,43.63
2019-02-26T16:28:34.652Z,47.43
2019-02-26T16:31:04.672Z,43.57
2019-02-26T16:33:34.942Z,45.10
2019-02-26T16:36:04.124Z,45.77
2019-02-26T16:38:45.669Z,43.00
2019-02-26T16:41:08.872Z,44.07
2019-02-26T16:43:37.663Z,47.10
2019-02-26T16:46:08.347Z,46.83
2019-02-26T16:48:37.412Z,46.13
2019-02-26T16:51:12.146Z,42.77
2019-02-26T16:53:39.012Z,44.27
2019-02-26T16:56:09.160Z,46.23
2019-02-26T16:58:39.202Z,45.90
2019-02-26T17:01:12.833Z,42.73
2019-02-26T17:03:43.268Z,42.63
2019-02-26T17:06:15.664Z,44.53
2019-02-26T17:09:34.056Z,47.27
2019-02-26T17:11:56.370Z,42.87
2019-02-26T17:14:26.529Z,41.87
2019-02-26T17:16:54.947Z,47.53
2019-02-26T17:19:48.306Z,44.23
2019-02-26T17:29:11.180Z,52.90
2019-02-26T17:31:40.593Z,53.80
2019-02-26T17:34:09.797Z,46.20
2019-02-26T17:36:38.033Z,44.70
2019-02-26T17:39:07.938Z,45.73
2019-02-26T17:41:39.183Z,50.63
2019-02-26T17:44:08.080Z,52.27
2019-02-26T17:52:37.331Z,63.17
2019-02-26T17:55:10.690Z,60.83
2019-02-26T17:57:39.828Z,66.93
2019-02-26T18:00:10.822Z,64.83
2019-02-26T18:02:38.910Z,61.83
2019-02-26T18:05:10.744Z,58.37
2019-02-26T18:07:39.079Z,60.00
2019-02-26T18:10:12.560Z,64.50
2019-02-26T18:12:42.643Z,81.20
2019-02-26T18:15:16.601Z,70.90
2019-02-26T18:17:47.645Z,71.13
2019-02-26T18:20:18.670Z,69.40
2019-02-26T18:22:47.633Z,72.33
2019-02-26T18:25:18.449Z,71.63
2019-02-26T18:27:47.335Z,69.47
2019-02-26T18:30:18.208Z,65.43
2019-02-26T18:32:50.296Z,69.67
2019-02-26T18:35:20.738Z,64.17
2019-02-26T18:37:54.131Z,64.13
2019-02-26T18:40:28.354Z,66.47
2019-02-26T18:43:14.349Z,66.63
2019-02-26T18:45:36.389Z,61.13
2019-02-26T18:48:09.107Z,61.07
2019-02-26T18:56:48.242Z,67.70
2019-02-26T18:59:21.459Z,70.57
2019-02-26T19:01:54.880Z,72.87
2019-02-26T19:04:56.600Z,71.13
2019-02-26T19:07:24.431Z,69.13
2019-02-26T19:12:38.239Z,69.27
2019-02-26T19:16:00.652Z,68.23
2019-02-26T19:18:48.446Z,57.20
2019-02-26T19:21:21.567Z,64.20
2019-02-26T19:23:52.082Z,61.70
2019-02-26T19:29:22.512Z,52.87
2019-02-26T19:32:04.017Z,59.17
2019-02-26T19:34:31.941Z,60.37
2019-02-26T19:37:00.152Z,60.17
2019-02-26T19:39:28.015Z,62.73
2019-02-26T19:41:55.933Z,59.60
2019-02-26T19:44:29.146Z,62.10
2019-02-26T19:46:57.144Z,59.90
2019-02-26T19:49:25.305Z,58.03
2019-02-26T19:51:53.515Z,59.93
2019-02-26T19:54:22.902Z,53.03
2019-02-26T19:56:51.580Z,60.80
2019-02-26T19:59:20.094Z,65.10
2019-02-26T20:01:48.288Z,62.97
2019-02-26T20:04:16.040Z,65.90
2019-02-26T20:06:44.037Z,68.27
2019-02-26T20:09:13.273Z,62.73
2019-02-26T20:11:41.122Z,70.87
2019-02-26T20:14:11.355Z,64.73
2019-02-26T20:16:39.150Z,63.63
2019-02-26T20:19:06.993Z,60.97
2019-02-26T20:21:35.405Z,64.30
2019-02-26T20:24:06.004Z,57.00
2019-02-26T20:26:34.347Z,54.30
2019-02-26T20:29:07.574Z,58.07
2019-02-26T20:31:35.386Z,61.43
2019-02-26T20:34:04.142Z,54.73
2019-02-26T20:36:33.666Z,51.73
2019-02-26T20:39:02.025Z,54.87
2019-02-26T20:41:29.808Z,54.07
2019-02-26T20:43:57.402Z,64.20
2019-02-26T20:46:25.881Z,59.37
2019-02-26T20:48:53.930Z,63.33
2019-02-26T20:51:21.944Z,56.97
2019-02-26T20:53:50.027Z,62.27
2019-02-26T20:56:17.875Z,62.00
2019-02-26T20:58:45.960Z,64.70
2019-02-26T21:01:15.364Z,73.03
2019-02-26T21:03:43.314Z,63.33
2019-02-26T21:06:11.312Z,67.07
2019-02-26T21:08:39.468Z,65.03
2019-02-26T21:11:09.386Z,65.37
2019-02-26T21:13:38.624Z,66.27
2019-02-26T21:16:07.872Z,60.00
2019-02-26T21:18:36.589Z,61.47
2019-02-26T21:21:11.727Z,62.13
2019-02-26T21:23:45.405Z,63.23
2019-02-26T21:26:13.283Z,78.23
2019-02-26T21:28:41.026Z,71.83
2019-02-26T21:31:08.597Z,64.27
2019-02-26T21:33:36.799Z,68.67
2019-02-26T21:36:04.482Z,66.27
2019-02-26T21:38:32.493Z,57.43
2019-02-26T21:41:07.738Z,55.07
2019-02-26T21:43:35.725Z,64.60
2019-02-26T21:46:03.730Z,58.23
2019-02-26T21:48:31.598Z,60.17
2019-02-26T21:50:59.687Z,66.10
2019-02-26T21:53:27.576Z,61.77
2019-02-26T21:55:58.228Z,56.87
2019-02-26T21:58:26.846Z,63.50
2019-02-26T22:00:55.364Z,70.30
2019-02-26T22:03:24.824Z,95.17
2019-02-26T22:05:52.671Z,100.53
2019-02-26T22:08:24.538Z,107.17
2019-02-26T22:10:50.609Z,101.43
2019-02-26T22:13:18.440Z,97.03
2019-02-26T22:15:51.165Z,98.53
2019-02-26T22:18:18.983Z,97.03
2019-02-26T22:20:47.002Z,92.40
2019-02-26T22:23:14.989Z,97.47
2019-02-26T22:25:43.063Z,94.27
2019-02-26T22:28:11.676Z,96.90
2019-02-26T22:30:39.524Z,88.37
2019-02-26T22:33:07.980Z,78.73
2019-02-26T22:35:36.114Z,85.30
2019-02-26T22:38:04.069Z,86.33
2019-02-26T22:40:31.909Z,73.27
2019-02-26T22:43:00.542Z,70.63
2019-02-26T22:45:28.625Z,68.97
2019-02-26T22:47:56.394Z,69.43
2019-02-26T22:50:27.779Z,63.93
2019-02-26T22:52:57.782Z,63.87
2019-02-26T22:55:26.091Z,63.00
2019-02-26T23:01:30.747Z,61.13
2019-02-26T23:03:59.107Z,58.20
2019-02-26T23:06:26.866Z,58.20
2019-02-26T23:08:54.670Z,65.33
2019-02-26T23:11:22.387Z,63.00
2019-02-26T23:13:50.337Z,67.17
2019-02-26T23:16:19.123Z,72.10
2019-02-26T23:18:48.859Z,61.53
2019-02-26T23:21:20.295Z,65.40
2019-02-26T23:23:48.240Z,63.83
2019-02-26T23:26:15.702Z,68.23
2019-02-26T23:28:43.700Z,72.13
2019-02-26T23:31:11.984Z,79.70
2019-02-26T23:33:40.848Z,69.70
2019-02-26T23:36:08.987Z,78.30
2019-02-26T23:38:36.981Z,67.17
2019-02-26T23:41:05.068Z,73.60
2019-02-26T23:43:33.446Z,70.13
2019-02-26T23:46:01.309Z,73.43
2019-02-26T23:48:29.095Z,74.40
2019-02-26T23:50:56.959Z,82.07
2019-02-26T23:53:24.640Z,74.07
2019-02-26T23:55:52.504Z,67.67
2019-02-26T23:58:19.923Z,77.03
